AirNav   Pilot Hours Calculator
 
 883 users online  

78K Yes Bay Lodge Seaplane Base
Yes Bay, Alaska, USA

GOING TO YES BAY?


FAA INFORMATION EFFECTIVE 12 SEPTEMBER 2019

Location

FAA Identifier: 78K
Lat/Long: 55-54-58.6850N 131-48-04.0810W
55-54.978083N 131-48.068017W
55.9163014,-131.8011336
(estimated)
Elevation: 0 ft. / 0 m (estimated)
Variation: 26E (1985)
Time zone: UTC -8 (UTC -9 during Standard Time)
Zip code: 99901

Seaplane Base Operations

Seaplane Base use: Open to the public
Control tower: no
ARTCC: ANCHORAGE CENTER
FSS: KETCHIKAN FLIGHT SERVICE STATION [907-225-9481]
Alternate FSS: JNU JUNEAU FLIGHT SERVICE STATION [1-866-297-2236]
NOTAMs facility: KTN (NOTAM-D service available)
Attendance: SUMMER DAYLIGHT HOURS
Wind indicator: no
Segmented circle: no

Seaplane Base Communications

CTAF: 122.9

Nearby radio navigation aids

NDB name  Hdg/Dist  Freq  Var  ID
CLAM COVE333/34.639621ECMJ -.-. -- .---

Seaplane Base Services

Bottled oxygen: NONE
Bulk oxygen: NONE

Runway Information

Runway E/W

Dimensions: 5000 x 2000 ft. / 1524 x 610 m
Surface: water
RUNWAY E  RUNWAY W
Elevation: 0.0 ft.0.0 ft.
Traffic pattern: leftleft

Seaplane Base Ownership and Management from official FAA records

Ownership: Privately-owned
Owner: KEVIN HACK
P.O. BOX 8660
KETCHIKAN, AK 99901
Phone 907-225-7906
Manager: KEVIN HACK
P.O. BOX 8660
KETCHIKAN, AK 99901
Phone 907-225-7906

Seaplane Base Operational Statistics

Aircraft based on the field: 3
Single engine airplanes: 3
    
Aircraft operations: avg 52/month *
95% air taxi
5% transient general aviation
* for 12-month period ending 31 December 2017

Additional Remarks

OPERS SUMMER; BOATS TIED AT FLOAT.
REEF & ISLANDS IN MIDDLE OF INLET.
PPR FOR GA ACFT LNDG.
STREAM CURRENT CAN AFFECT TAXIING TO FLOAT.

Instrument Procedures

There are no published instrument procedures at 78K.

Some nearby airports with instrument procedures:

PAKT - Ketchikan International Airport (34 nm S)
PAWG - Wrangell Airport (39 nm NW)
PAKW - Klawock Airport (48 nm SW)
PAPG - Petersburg James A Johnson Airport (65 nm NW)
PAFE - Kake Airport (94 nm NW)
 
Loc | Ops | Rwys | IFR | FBO | Links
Com | Nav | Svcs | Stats | Notes

Crowley
 
Area around 78K (Yes Bay Lodge Seaplane Base)
 
Road maps at: MapQuest Bing Google
 
Aerial photo
No photo
 
Sectional chart

 
Airport distance calculator
Flying to Yes Bay Lodge Seaplane Base? Find the distance to fly.

From to 78K

Sunrise and sunset
Times for 21-Sep-2019
 Local
(UTC-8)
 Zulu
(UTC)
Morning civil twilight05:5513:55
Sunrise06:3214:32
Sunset18:4902:49
Evening civil twilight19:2603:26

Current date and time
Zulu (UTC)  21-Sep-2019 22:25:46
Local (UTC-8)  21-Sep-2019 14:25:46
 
METAR
PAKT 
34nm S 
212153Z 13012KT 4SM -RA BR SCT006 BKN013 OVC023 14/13 A2962 RMK RAB05 SLP032 HARBOR WIND 11011KT VIS 3V5 P0004 T01390133 VIA AUTODIAL
PAWG 
39nm NW 
212156Z 24009G22KT 4SM +RA BR SCT011 BKN020 OVC027 12/11 A2958 RMK AO2 SLP017 P0002 T01170106
PAKW 
47nm SW 
212153Z AUTO VRB06KT 10SM BKN012 BKN021 OVC065 14/13 A2958 RMK RAE46 SLP015 P0002 T01390128 TSNO VIA AUTODIAL
PAMM 
48nm S 
211156Z AUTO 16011G27KT 5SM RA BR OVC007 14/13 A2964 RMK AO2 PK WND 16028/1108 CIG 006V011 SLP027 P0027 60107 70196 T01390133 10144 20139 58021 $
TAF
PAKT 
34nm S 
211740Z 2118/2218 12012G20KT 4SM -SHRA BR SCT007 BKN015 OVC035 FM220600 12005KT 6SM -SHRA BR SCT015 BKN025 OVC050 AMD LTD TO CLD VIS AND WIND 2206/2215
PAWG 
39nm NW 
211740Z 2118/2218 14005KT 6SM -SHRA BR SCT005 BKN025 OVC035 TEMPO 2120/2124 4SM SHRA BR BKN010 OVC020 FM221000 16005KT P6SM -SHRA SCT025 OVC040 AMD LTD TO CLD VIS AND WIND 2206/2215
NOTAMs
Click for the latest NOTAMs
NOTAMs are issued by the DoD/FAA and will open in a separate window not controlled by AirNav.

 

 
 

Would you like to see your business listed on this page?

 If your business provides an interesting product or service to pilots, flight crews, aircraft, or users of the Yes Bay Lodge Seaplane Base, you should consider listing it here.  To start the listing process, click on the button below
 
Add a business
 

Other Pages about Yes Bay Lodge Seaplane Base

Update a link
 
Copyright © AirNav, LLC. All rights reserved. Privacy Policy  Contact